ZSSS/SHA METAR and TAF weather

Enter ICAO airport designator
Station Type Date Time Source
ZSSS METAR 2022/01/26 08:30 UTC NOAA

ZSSS 260830Z 05004MPS 4000 -RA BR BKN011 OVC033 08/07 Q1023 NOSIG


Station Type Date Time Source
ZSSS Decoded METAR 2022/01/26 08:30 UTC NOAA

Shanghai / Hongqiao, China (ZSSS) 31-10N 121-26E 3M
Jan 26, 2022 - 03:30 AM EST / 2022.01.26 0830 UTC
Wind: from the NE (050 degrees) at 9 MPH (8 KT):0
Visibility: 2 mile(s):0
Sky conditions: overcast
Weather: light rain; mist
Temperature: 46 F (8 C)
Dew Point: 44 F (7 C)
Relative Humidity: 93%
Pressure (altimeter): 30.21 in. Hg (1023 hPa)
ob: ZSSS 260830Z 05004MPS 4000 -RA BR BKN011 OVC033 08/07 Q1023 NOSIG
cycle: 8

Station Type Date Time Source
ZSSS TAF 2022/01/26 06:03 UTC NOAA

TAF ZSSS 260314Z 2606/2706 02004MPS 5000 -RA BR BKN013 OVC030 TX08/2606Z TN06/2620Z

Example: see airport list